createdAt,value
2024-04-11T00:01:57.159Z,7.00
2024-04-11T00:04:45.043Z,7.10
2024-04-11T00:07:32.062Z,7.10
2024-04-11T00:10:19.083Z,7.10
2024-04-11T00:13:06.066Z,7.00
2024-04-11T00:15:55.399Z,7.00
2024-04-11T00:18:42.574Z,6.90
2024-04-11T00:21:29.602Z,6.90
2024-04-11T00:24:16.894Z,6.80
2024-04-11T00:27:04.585Z,6.80
2024-04-11T00:29:51.526Z,6.80
2024-04-11T00:32:38.620Z,6.70
2024-04-11T00:35:25.795Z,6.70
2024-04-11T00:38:12.798Z,6.70
2024-04-11T00:41:00.956Z,6.70
2024-04-11T00:43:48.921Z,6.60
2024-04-11T00:46:35.882Z,6.60
2024-04-11T00:49:23.591Z,6.60
2024-04-11T00:52:11.124Z,6.60
2024-04-11T00:54:58.348Z,6.60
2024-04-11T00:57:45.843Z,6.50
2024-04-11T01:00:33.802Z,6.50
2024-04-11T01:03:21.171Z,6.40
2024-04-11T01:06:08.332Z,6.40
2024-04-11T01:08:55.550Z,6.50
2024-04-11T01:11:42.745Z,6.50
2024-04-11T01:14:30.027Z,6.50
2024-04-11T01:17:19.812Z,6.50
2024-04-11T01:20:08.050Z,6.50
2024-04-11T01:22:55.307Z,6.50
2024-04-11T01:25:42.302Z,6.40
2024-04-11T01:28:31.312Z,6.50
2024-04-11T01:31:19.305Z,6.40
2024-04-11T01:34:06.446Z,6.40
2024-04-11T01:36:53.571Z,6.40
2024-04-11T01:39:40.576Z,6.40
2024-04-11T01:42:27.552Z,6.30
2024-04-11T01:45:14.636Z,6.30
2024-04-11T01:48:01.794Z,6.30
2024-04-11T01:50:49.913Z,6.30
2024-04-11T01:53:38.436Z,6.20
2024-04-11T01:56:26.595Z,6.20
2024-04-11T01:59:14.567Z,6.20
2024-04-11T02:02:04.516Z,6.20
2024-04-11T02:04:51.576Z,6.20
2024-04-11T02:07:39.725Z,6.30
2024-04-11T02:10:28.211Z,6.10
2024-04-11T02:13:15.230Z,6.00
2024-04-11T02:16:02.196Z,6.00
2024-04-11T02:18:49.222Z,6.00
2024-04-11T02:21:44.090Z,5.90
2024-04-11T02:24:31.267Z,5.90
2024-04-11T02:27:18.836Z,5.90
2024-04-11T02:30:06.931Z,5.90
2024-04-11T02:32:54.361Z,5.90
2024-04-11T02:35:41.510Z,5.80
2024-04-11T02:38:28.480Z,5.80
2024-04-11T02:41:15.465Z,5.70
2024-04-11T02:44:02.401Z,5.70
2024-04-11T02:46:49.852Z,5.70
2024-04-11T02:49:36.944Z,5.70
2024-04-11T02:52:25.470Z,5.70
2024-04-11T02:55:16.292Z,5.60
2024-04-11T02:58:03.645Z,5.60
2024-04-11T03:01:01.439Z,5.60
2024-04-11T03:03:49.027Z,5.60
2024-04-11T03:06:36.831Z,5.60
2024-04-11T03:09:24.158Z,5.60
2024-04-11T03:12:11.325Z,5.60
2024-04-11T03:14:58.741Z,5.50
2024-04-11T03:17:45.892Z,5.50
2024-04-11T03:20:32.935Z,5.50
2024-04-11T03:23:19.964Z,5.50
2024-04-11T03:26:06.964Z,5.60
2024-04-11T03:31:43.591Z,5.70
2024-04-11T03:34:30.679Z,5.80
2024-04-11T03:37:17.697Z,5.70
2024-04-11T03:40:05.236Z,5.70
2024-04-11T03:42:52.268Z,5.70
2024-04-11T03:45:39.322Z,5.60
2024-04-11T03:48:26.696Z,5.50
2024-04-11T03:51:15.602Z,5.40
2024-04-11T03:54:03.027Z,5.40
2024-04-11T03:56:51.729Z,5.40
2024-04-11T03:59:38.838Z,5.40
2024-04-11T04:02:26.380Z,5.40
2024-04-11T04:05:14.694Z,5.40
2024-04-11T04:08:01.666Z,5.40
2024-04-11T04:10:48.667Z,5.40
2024-04-11T04:13:38.384Z,5.40
2024-04-11T04:16:25.414Z,5.30
2024-04-11T04:19:12.522Z,5.30
2024-04-11T04:22:00.789Z,5.30
2024-04-11T04:24:50.252Z,5.30
2024-04-11T04:27:38.376Z,5.40
2024-04-11T04:30:25.359Z,5.40
2024-04-11T04:33:12.674Z,5.40
2024-04-11T04:35:59.805Z,5.40
2024-04-11T04:38:48.141Z,5.40
2024-04-11T04:41:36.185Z,5.40
2024-04-11T04:44:23.921Z,5.30
2024-04-11T04:47:17.827Z,5.20
2024-04-11T04:50:07.512Z,5.20
2024-04-11T04:52:55.735Z,5.20
2024-04-11T04:55:42.961Z,5.20
2024-04-11T04:58:29.963Z,5.20
2024-04-11T05:01:19.227Z,5.20
2024-04-11T05:04:07.562Z,5.20
2024-04-11T05:06:56.075Z,5.20
2024-04-11T05:09:47.401Z,5.20
2024-04-11T05:12:44.588Z,5.10
2024-04-11T05:15:31.742Z,5.10
2024-04-11T05:18:18.779Z,5.20
2024-04-11T05:21:13.963Z,5.20
2024-04-11T05:24:01.212Z,5.20
2024-04-11T05:26:50.550Z,5.20
2024-04-11T05:29:37.809Z,5.10
2024-04-11T05:32:24.938Z,5.10
2024-04-11T05:35:13.044Z,5.10
2024-04-11T05:38:00.363Z,5.20
2024-04-11T05:40:47.872Z,5.30
2024-04-11T05:43:38.002Z,5.40
2024-04-11T05:46:25.864Z,5.50
2024-04-11T05:49:14.274Z,5.60
2024-04-11T05:52:01.862Z,5.70
2024-04-11T05:54:51.979Z,5.80
2024-04-11T05:57:39.104Z,5.90
2024-04-11T06:00:30.809Z,5.90
2024-04-11T06:03:18.912Z,6.00
2024-04-11T06:06:06.293Z,6.00
2024-04-11T06:08:56.699Z,6.00
2024-04-11T06:11:44.119Z,6.10
2024-04-11T06:14:31.204Z,6.10
2024-04-11T06:17:18.378Z,6.20
2024-04-11T06:20:10.088Z,6.30
2024-04-11T06:23:00.922Z,6.40
2024-04-11T06:25:48.728Z,6.40
2024-04-11T06:28:35.982Z,6.50
2024-04-11T06:31:25.566Z,6.60
2024-04-11T06:34:13.063Z,6.60
2024-04-11T06:37:00.337Z,6.90
2024-04-11T06:39:47.362Z,7.10
2024-04-11T06:42:41.570Z,7.30
2024-04-11T06:45:31.470Z,7.50
2024-04-11T06:48:20.692Z,7.70
2024-04-11T06:51:08.606Z,7.90
2024-04-11T06:53:55.931Z,8.00
2024-04-11T06:56:46.452Z,8.20
2024-04-11T06:59:33.755Z,8.30
2024-04-11T07:02:26.098Z,8.40
2024-04-11T07:05:15.292Z,8.60
2024-04-11T07:08:02.225Z,8.70
2024-04-11T07:10:51.481Z,8.80
2024-04-11T07:13:39.853Z,9.00
2024-04-11T07:16:30.978Z,9.10
2024-04-11T07:19:19.164Z,9.30
2024-04-11T07:22:10.451Z,9.30
2024-04-11T07:24:57.536Z,9.50
2024-04-11T07:27:45.619Z,9.50
2024-04-11T07:30:32.959Z,9.60
2024-04-11T07:33:20.068Z,9.70
2024-04-11T07:36:08.499Z,9.80
2024-04-11T07:38:58.929Z,9.90
2024-04-11T07:41:47.241Z,10.00
2024-04-11T07:44:37.414Z,10.10
2024-04-11T07:47:43.481Z,10.10
2024-04-11T07:50:35.742Z,10.20
2024-04-11T07:53:23.733Z,10.30
2024-04-11T07:56:10.753Z,10.40
2024-04-11T07:58:58.269Z,10.50
2024-04-11T08:01:46.024Z,10.60
2024-04-11T08:04:33.123Z,10.70
2024-04-11T08:07:20.210Z,10.70
2024-04-11T08:10:09.770Z,10.80
2024-04-11T08:12:58.504Z,10.90
2024-04-11T08:15:45.901Z,10.90
2024-04-11T08:18:32.979Z,11.00
2024-04-11T08:21:22.018Z,11.10
2024-04-11T08:24:09.046Z,11.20
2024-04-11T08:26:56.006Z,11.20
2024-04-11T08:29:43.100Z,11.30
2024-04-11T08:32:30.120Z,11.30
2024-04-11T08:35:20.327Z,11.40
2024-04-11T08:38:08.497Z,11.50
2024-04-11T08:41:00.504Z,11.60
2024-04-11T08:43:48.129Z,11.70
2024-04-11T08:46:36.987Z,11.80
2024-04-11T08:49:24.708Z,11.80
2024-04-11T08:52:14.534Z,11.90
2024-04-11T08:55:02.201Z,12.00
2024-04-11T08:57:50.506Z,12.00
2024-04-11T09:00:47.321Z,12.10
2024-04-11T09:03:34.945Z,12.10
2024-04-11T09:06:25.751Z,12.10
2024-04-11T09:09:17.717Z,12.10
2024-04-11T09:12:05.690Z,12.30
2024-04-11T09:14:52.809Z,12.30
2024-04-11T09:17:41.112Z,12.50
2024-04-11T09:20:28.152Z,12.60
2024-04-11T09:23:21.205Z,12.70
2024-04-11T09:26:08.169Z,12.80
2024-04-11T09:28:55.993Z,12.80
2024-04-11T09:31:44.045Z,12.90
2024-04-11T09:34:32.123Z,13.00
2024-04-11T09:37:24.968Z,13.00
2024-04-11T09:40:13.283Z,13.00
2024-04-11T09:43:05.515Z,13.10
2024-04-11T09:45:57.683Z,13.10
2024-04-11T09:48:46.203Z,13.20
2024-04-11T09:51:36.390Z,13.30
2024-04-11T09:54:24.882Z,13.40
2024-04-11T09:57:13.642Z,13.50
2024-04-11T10:00:02.863Z,13.60
2024-04-11T10:02:56.631Z,13.80
2024-04-11T10:05:48.018Z,14.00
2024-04-11T10:08:37.857Z,14.00
2024-04-11T10:11:35.043Z,14.20
2024-04-11T10:14:29.720Z,14.20
2024-04-11T10:17:16.846Z,14.30
2024-04-11T10:20:13.979Z,14.40
2024-04-11T10:23:00.989Z,14.50
2024-04-11T10:25:51.021Z,14.70
2024-04-11T10:28:47.606Z,14.80
2024-04-11T10:31:35.547Z,15.00
2024-04-11T10:34:26.927Z,15.10
2024-04-11T10:37:15.747Z,15.30
2024-04-11T10:40:03.006Z,15.40
2024-04-11T10:43:12.309Z,15.50
2024-04-11T10:46:00.135Z,15.60
2024-04-11T10:48:49.190Z,15.70
2024-04-11T10:51:38.874Z,15.70
2024-04-11T10:54:27.712Z,15.80
2024-04-11T10:57:15.332Z,16.00
2024-04-11T11:00:12.059Z,16.30
2024-04-11T11:03:12.979Z,16.60
2024-04-11T11:06:00.144Z,16.90
2024-04-11T11:08:48.231Z,17.20
2024-04-11T11:11:41.312Z,17.60
2024-04-11T11:14:30.266Z,17.80
2024-04-11T11:17:20.430Z,18.20
2024-04-11T11:20:11.544Z,18.50
2024-04-11T11:22:59.754Z,18.80
2024-04-11T11:25:48.067Z,19.20
2024-04-11T11:28:34.998Z,19.80
2024-04-11T11:31:25.198Z,20.70
2024-04-11T11:34:12.389Z,21.60
2024-04-11T11:37:03.104Z,22.50
2024-04-11T11:39:56.830Z,23.20
2024-04-11T11:42:45.003Z,23.80
2024-04-11T11:45:45.904Z,24.20
2024-04-11T11:48:33.485Z,24.50
2024-04-11T11:51:21.242Z,24.60
2024-04-11T11:54:14.136Z,24.70
2024-04-11T11:57:10.992Z,24.60
2024-04-11T11:59:59.482Z,24.60
2024-04-11T12:03:21.675Z,24.50
2024-04-11T12:06:14.815Z,24.90
2024-04-11T12:09:12.332Z,25.50
2024-04-11T12:12:21.996Z,25.90
2024-04-11T12:15:09.087Z,26.50
2024-04-11T12:17:57.045Z,27.40
2024-04-11T12:20:45.242Z,28.60
2024-04-11T12:23:36.570Z,29.80
2024-04-11T12:26:23.738Z,31.20
2024-04-11T12:29:12.566Z,32.60
2024-04-11T12:32:04.378Z,33.60
2024-04-11T12:34:51.359Z,34.50
2024-04-11T12:37:39.355Z,34.90
2024-04-11T12:40:35.186Z,34.70
2024-04-11T12:43:22.182Z,34.10
2024-04-11T12:46:10.770Z,33.50
2024-04-11T12:48:58.447Z,32.50
2024-04-11T12:51:47.192Z,31.70
2024-04-11T12:54:35.734Z,30.80
2024-04-11T12:57:30.220Z,29.80
2024-04-11T13:00:37.184Z,28.90
2024-04-11T13:03:47.550Z,28.50
2024-04-11T13:06:53.140Z,28.30
2024-04-11T13:09:50.564Z,28.10
2024-04-11T13:12:38.086Z,27.80
2024-04-11T13:15:45.060Z,27.60
2024-04-11T13:18:32.214Z,27.30
2024-04-11T13:21:33.356Z,26.90
2024-04-11T13:24:25.475Z,26.40
2024-04-11T13:27:15.745Z,25.90
2024-04-11T13:30:13.239Z,25.50
2024-04-11T13:33:04.687Z,25.20
2024-04-11T13:35:52.367Z,24.70
2024-04-11T13:38:43.532Z,24.20
2024-04-11T13:41:49.205Z,23.80
2024-04-11T13:44:36.896Z,23.40
2024-04-11T13:47:27.234Z,23.10
2024-04-11T13:50:36.779Z,22.90
2024-04-11T13:53:23.940Z,22.70
2024-04-11T13:56:15.184Z,22.60
2024-04-11T13:59:09.334Z,22.40
2024-04-11T14:02:00.924Z,22.20
2024-04-11T14:04:48.332Z,22.00
2024-04-11T14:07:35.784Z,21.80
2024-04-11T14:10:23.942Z,21.70
2024-04-11T14:13:16.460Z,21.80
2024-04-11T14:16:10.153Z,21.80
2024-04-11T14:19:01.003Z,21.80
2024-04-11T14:22:10.946Z,21.70
2024-04-11T14:25:10.404Z,21.70
2024-04-11T14:28:01.839Z,21.70
2024-04-11T14:30:56.281Z,21.60
2024-04-11T14:34:03.400Z,21.50
2024-04-11T14:37:09.742Z,21.40
2024-04-11T14:39:56.729Z,21.40
2024-04-11T14:42:48.697Z,21.30
2024-04-11T14:45:41.345Z,21.30
2024-04-11T14:48:35.685Z,21.30
2024-04-11T14:51:27.864Z,21.00
2024-04-11T14:54:18.147Z,20.70
2024-04-11T14:57:13.208Z,20.50
2024-04-11T15:00:00.527Z,20.30
2024-04-11T15:02:52.184Z,20.10
2024-04-11T15:05:39.346Z,19.80
2024-04-11T15:08:32.319Z,19.70
2024-04-11T15:11:26.784Z,19.60
2024-04-11T15:14:13.835Z,19.40
2024-04-11T15:17:19.949Z,19.30
2024-04-11T15:20:11.512Z,19.20
2024-04-11T15:22:58.740Z,19.20
2024-04-11T15:25:53.021Z,19.20
2024-04-11T15:28:46.317Z,19.20
2024-04-11T15:31:33.434Z,19.20
2024-04-11T15:34:27.101Z,19.20
2024-04-11T15:37:29.762Z,19.20
2024-04-11T15:40:24.316Z,19.20
2024-04-11T15:43:28.638Z,19.20
2024-04-11T15:46:21.891Z,19.20
2024-04-11T15:49:09.264Z,19.20
2024-04-11T15:51:58.702Z,19.20
2024-04-11T15:54:57.675Z,19.10
2024-04-11T15:57:44.952Z,19.10
2024-04-11T16:00:40.658Z,19.10
2024-04-11T16:03:38.503Z,19.10
2024-04-11T16:06:31.654Z,19.00
2024-04-11T16:09:19.467Z,19.00
2024-04-11T16:12:11.468Z,19.00
2024-04-11T16:14:58.665Z,19.00
2024-04-11T16:17:48.308Z,19.00
2024-04-11T16:20:35.838Z,19.10
2024-04-11T16:23:24.704Z,19.10
2024-04-11T16:26:14.423Z,19.20
2024-04-11T16:29:08.526Z,19.30
2024-04-11T16:31:57.735Z,19.40
2024-04-11T16:34:44.767Z,19.40
2024-04-11T16:37:36.454Z,19.40
2024-04-11T16:40:25.554Z,19.40
2024-04-11T16:43:12.704Z,19.30
2024-04-11T16:46:00.504Z,19.20
2024-04-11T16:48:47.751Z,19.20
2024-04-11T16:51:34.807Z,19.10
2024-04-11T16:54:29.938Z,19.10
2024-04-11T16:57:16.969Z,19.00
2024-04-11T17:00:27.920Z,18.90
2024-04-11T17:03:19.328Z,18.90
2024-04-11T17:06:15.489Z,18.80
2024-04-11T17:09:05.131Z,18.60
2024-04-11T17:11:55.263Z,18.50
2024-04-11T17:14:42.813Z,18.30
2024-04-11T17:17:51.653Z,18.20
2024-04-11T17:20:50.186Z,18.10
2024-04-11T17:23:40.179Z,18.00
2024-04-11T17:26:29.464Z,17.90
2024-04-11T17:29:36.523Z,17.80
2024-04-11T17:32:25.405Z,17.70
2024-04-11T17:35:22.482Z,17.70
2024-04-11T17:38:25.406Z,17.60
2024-04-11T17:41:26.753Z,17.50
2024-04-11T17:44:14.114Z,17.30
2024-04-11T17:47:07.046Z,17.20
2024-04-11T17:50:03.136Z,17.00
2024-04-11T17:52:52.135Z,16.90
2024-04-11T17:55:40.213Z,16.80
2024-04-11T17:58:32.257Z,16.70
2024-04-11T18:01:25.912Z,16.60
2024-04-11T18:04:18.559Z,16.50
2024-04-11T18:07:07.507Z,16.40
2024-04-11T18:09:55.186Z,16.40
2024-04-11T18:12:42.354Z,16.30
2024-04-11T18:15:32.297Z,16.20
2024-04-11T18:18:21.951Z,16.00
2024-04-11T18:21:13.051Z,15.80
2024-04-11T18:24:00.195Z,15.80
2024-04-11T18:26:47.480Z,15.70
2024-04-11T18:29:34.658Z,15.50
2024-04-11T18:32:29.679Z,15.40
2024-04-11T18:35:16.863Z,15.10
2024-04-11T18:38:06.893Z,14.90
2024-04-11T18:41:12.368Z,14.70
2024-04-11T18:44:00.360Z,14.60
2024-04-11T18:46:58.290Z,14.50
2024-04-11T18:49:47.016Z,14.40
2024-04-11T18:52:34.771Z,14.30
2024-04-11T18:55:24.524Z,14.40
2024-04-11T18:58:18.640Z,14.40
2024-04-11T19:01:05.895Z,14.30
2024-04-11T19:03:52.995Z,14.20
2024-04-11T19:06:41.386Z,14.10
2024-04-11T19:09:30.108Z,14.00
2024-04-11T19:12:18.303Z,13.90
2024-04-11T19:15:09.439Z,13.80
2024-04-11T19:17:57.311Z,13.70
2024-04-11T19:20:45.610Z,13.60
2024-04-11T19:23:38.896Z,13.60
2024-04-11T19:26:28.205Z,13.50
2024-04-11T19:29:23.938Z,13.40
2024-04-11T19:32:11.144Z,13.30
2024-04-11T19:35:00.966Z,13.20
2024-04-11T19:37:49.266Z,13.10
2024-04-11T19:40:36.270Z,13.10
2024-04-11T19:43:23.926Z,13.00
2024-04-11T19:46:14.023Z,12.80
2024-04-11T19:49:01.215Z,12.60
2024-04-11T19:51:51.435Z,12.40
2024-04-11T19:54:49.044Z,12.40
2024-04-11T19:57:49.832Z,12.40
2024-04-11T20:00:39.903Z,12.40
2024-04-11T20:03:31.112Z,12.30
2024-04-11T20:06:19.619Z,12.30
2024-04-11T20:09:14.114Z,12.10
2024-04-11T20:12:08.995Z,11.90
2024-04-11T20:15:28.762Z,11.80
2024-04-11T20:18:22.600Z,11.60
2024-04-11T20:21:09.871Z,11.60
2024-04-11T20:23:58.941Z,11.50
2024-04-11T20:26:45.996Z,11.50
2024-04-11T20:29:33.739Z,11.50
2024-04-11T20:32:25.594Z,11.60
2024-04-11T20:35:27.587Z,11.50
2024-04-11T20:38:22.621Z,11.50
2024-04-11T20:41:24.735Z,11.40
2024-04-11T20:44:11.668Z,11.30
2024-04-11T20:47:07.555Z,11.20
2024-04-11T20:50:13.022Z,11.20
2024-04-11T20:53:18.483Z,11.20
2024-04-11T20:56:24.968Z,11.10
2024-04-11T20:59:30.858Z,11.00
2024-04-11T21:02:37.615Z,10.90
2024-04-11T21:05:43.192Z,10.90
2024-04-11T21:08:48.808Z,11.00
2024-04-11T21:11:54.538Z,11.00
2024-04-11T21:15:00.477Z,11.00
2024-04-11T21:18:06.197Z,11.00
2024-04-11T21:21:11.974Z,10.90
2024-04-11T21:24:17.334Z,10.80
2024-04-11T21:27:22.962Z,10.70
2024-04-11T21:30:28.756Z,10.60
2024-04-11T21:33:34.738Z,10.60
2024-04-11T21:36:25.931Z,10.50
2024-04-11T21:39:17.454Z,10.50
2024-04-11T21:42:10.935Z,10.40
2024-04-11T21:44:58.132Z,10.30
2024-04-11T21:47:48.305Z,10.30
2024-04-11T21:50:43.402Z,10.30
2024-04-11T21:53:34.573Z,10.30
2024-04-11T21:56:22.269Z,10.20
2024-04-11T21:59:16.605Z,10.30
2024-04-11T22:02:05.942Z,10.20
2024-04-11T22:04:53.254Z,10.20
2024-04-11T22:07:42.170Z,10.20
2024-04-11T22:10:32.235Z,10.10
2024-04-11T22:13:19.812Z,10.10
2024-04-11T22:16:07.304Z,10.00
2024-04-11T22:19:00.568Z,10.00
2024-04-11T22:21:51.997Z,10.10
2024-04-11T22:24:53.469Z,10.10
2024-04-11T22:27:40.716Z,10.20
2024-04-11T22:30:30.807Z,10.10
2024-04-11T22:33:19.557Z,10.00
2024-04-11T22:36:18.506Z,10.00
2024-04-11T22:39:05.790Z,9.90
2024-04-11T22:41:58.497Z,9.90
2024-04-11T22:44:48.834Z,9.80
2024-04-11T22:47:36.619Z,9.80
2024-04-11T22:50:25.742Z,9.80
2024-04-11T22:53:14.631Z,9.80
2024-04-11T22:56:01.652Z,9.70
2024-04-11T22:58:48.729Z,9.70
2024-04-11T23:01:55.639Z,9.70
2024-04-11T23:05:02.401Z,9.70
2024-04-11T23:07:59.130Z,9.80
2024-04-11T23:10:47.589Z,9.80
2024-04-11T23:13:36.401Z,9.90
2024-04-11T23:16:35.767Z,9.90
2024-04-11T23:19:26.230Z,9.90
2024-04-11T23:22:27.093Z,9.90
2024-04-11T23:25:15.152Z,10.00
2024-04-11T23:28:06.807Z,10.10
2024-04-11T23:30:56.775Z,10.10
2024-04-11T23:33:57.378Z,10.10
2024-04-11T23:36:46.747Z,10.20
2024-04-11T23:39:38.020Z,10.10
2024-04-11T23:42:41.660Z,10.10
2024-04-11T23:45:31.087Z,10.10
2024-04-11T23:48:18.507Z,10.10
2024-04-11T23:51:05.848Z,10.10
2024-04-11T23:53:54.730Z,10.10
2024-04-11T23:56:44.780Z,10.00
2024-04-11T23:59:40.212Z,9.90
